Welcome to Northern Hawkes Bay. New Zealand.
PWS Header
      nz Flag



Hit Counter


W3C Valid W3C Valid logo


    Wairoa

Select any of the Stations below to visit their websites.










Historic Data from Weather Underground
Select the location of interest below. Wairoa is the default. Please have patience, this Data is slow to load in.
Northern Hawkes Bay Historical Data
Daily Summary for August 4, 2017 Units:  Metric    English   Both
« Previous Day
Next Day »
Daily Weekly Monthly Yearly Custom
  High: Low: Average:
Temperature: 10.4 °C 6.0 °C 8.3 °C
Dew Point: 7.7 °C 3.7 °C 6.4 °C
Humidity: 98% 70% 88%
Wind Speed: 20.9km/h 0.0km/h 9km/h
Wind Gust: 31.7km/h - -
Wind- - WSW
Pressure: 1024.9 hPa 1021.2 hPa -
Precipitation: 8.1 mm    
Historical Graphs
 
 
Tabular Data for August 4, 2017
Time Temperature Dew Point Pressure Wind Wind Speed Wind Gust Humidity Rainfall Rate (Hourly) solar
00:03 8.2 °C 6.3 °C 1021.6 hPa SW 8.7 km/h 19.5 km/h 88% 0.0 mm 0 W/m2
00:08 8.2 °C 6.5 °C 1021.6 hPa WSW 8.7 km/h 17.2 km/h 89% 0.0 mm 0 W/m2
00:13 8.2 °C 6.5 °C 1021.2 hPa WSW 11.1 km/h 17.2 km/h 89% 0.0 mm 0 W/m2
00:18 8.2 °C 6.5 °C 1021.6 hPa WSW 7.2 km/h 18.3 km/h 89% 0.0 mm 0 W/m2
00:23 8.2 °C 6.5 °C 1021.6 hPa West 8.7 km/h 18.3 km/h 89% 0.0 mm 0 W/m2
00:28 8.1 °C 6.4 °C 1021.6 hPa WNW 9.7 km/h 17.2 km/h 89% 0.0 mm 0 W/m2
00:33 8.3 °C 6.6 °C 1021.6 hPa West 8.7 km/h 19.5 km/h 89% 0.0 mm 0 W/m2
00:38 8.4 °C 6.7 °C 1021.6 hPa WSW 11.1 km/h 19.5 km/h 89% 0.0 mm 0 W/m2
00:55 8.8 °C 4.1 °C 1021.6 hPa SSW 5.0 km/h 14.8 km/h 72% 0.0 mm 0 W/m2
01:00 8.9 °C 3.7 °C 1021.6 hPa South 3.5 km/h 13.4 km/h 70% 0.0 mm 0 W/m2
01:06 8.8 °C 3.8 °C 1021.6 hPa South 7.2 km/h 13.4 km/h 71% 0.0 mm 0 W/m2
01:11 8.7 °C 4.9 °C 1021.6 hPa SSW 13.4 km/h 21.9 km/h 77% 0.0 mm 0 W/m2
01:16 8.4 °C 5.8 °C 1021.6 hPa South 8.7 km/h 23.3 km/h 84% 0.0 mm 0 W/m2
01:21 8.4 °C 6.2 °C 1021.6 hPa SSW 9.7 km/h 23.3 km/h 86% 0.0 mm 0 W/m2
01:26 8.2 °C 6.2 °C 1021.6 hPa SW 11.1 km/h 23.3 km/h 87% 0.3 mm 0 W/m2
01:31 8.0 °C 5.9 °C 1021.6 hPa SW 17.2 km/h 23.3 km/h 87% 0.5 mm 0 W/m2
01:36 8.0 °C 6.1 °C 1021.6 hPa SSW 11.1 km/h 24.5 km/h 88% 0.5 mm 0 W/m2
01:41 7.9 °C 6.2 °C 1021.9 hPa SSW 13.4 km/h 24.5 km/h 89% 1.0 mm 0 W/m2
01:43 7.9 °C 6.4 °C 1021.6 hPa SSW 11.1 km/h 21.9 km/h 90% 1.0 mm 0 W/m2
01:48 7.8 °C 6.3 °C 1021.6 hPa SW 5.0 km/h 18.3 km/h 90% 1.3 mm 0 W/m2
01:53 7.7 °C 6.2 °C 1021.6 hPa SW 13.4 km/h 20.9 km/h 90% 1.3 mm 0 W/m2
01:58 7.7 °C 6.2 °C 1021.6 hPa WSW 14.8 km/h 20.9 km/h 90% 1.3 mm 0 W/m2
02:03 7.7 °C 6.0 °C 1021.6 hPa WSW 12.2 km/h 25.6 km/h 89% 1.3 mm 0 W/m2
02:08 7.7 °C 6.0 °C 1021.6 hPa WSW 9.7 km/h 25.6 km/h 89% 1.3 mm 0 W/m2
02:13 7.6 °C 5.7 °C 1021.6 hPa WSW 11.1 km/h 20.9 km/h 88% 1.3 mm 0 W/m2
02:18 7.6 °C 5.7 °C 1021.6 hPa WSW 14.8 km/h 21.9 km/h 88% 1.3 mm 0 W/m2
02:23 7.5 °C 5.7 °C 1021.6 hPa WSW 11.1 km/h 21.9 km/h 88% 1.3 mm 0 W/m2
02:28 7.5 °C 5.9 °C 1021.6 hPa West 17.2 km/h 21.9 km/h 90% 0.5 mm 0 W/m2
02:33 7.7 °C 6.3 °C 1021.6 hPa WSW 12.2 km/h 20.9 km/h 91% 0.5 mm 0 W/m2
02:38 7.9 °C 6.5 °C 1021.6 hPa WSW 12.2 km/h 21.9 km/h 91% 0.5 mm 0 W/m2
02:43 8.0 °C 6.6 °C 1021.6 hPa SW 8.7 km/h 21.9 km/h 91% 0.3 mm 0 W/m2
02:48 7.9 °C 6.7 °C 1021.6 hPa SW 13.4 km/h 21.9 km/h 92% 0.0 mm 0 W/m2
02:53 7.8 °C 6.6 °C 1021.6 hPa SW 8.7 km/h 24.5 km/h 92% 0.0 mm 0 W/m2
02:58 7.7 °C 6.5 °C 1021.6 hPa WSW 14.8 km/h 25.6 km/h 92% 0.3 mm 0 W/m2
03:03 7.5 °C 6.3 °C 1021.6 hPa WSW 17.2 km/h 29.4 km/h 92% 0.3 mm 0 W/m2
03:08 7.4 °C 6.2 °C 1021.2 hPa SW 11.1 km/h 29.4 km/h 92% 0.3 mm 0 W/m2
03:13 7.3 °C 6.1 °C 1021.6 hPa WSW 13.4 km/h 24.5 km/h 92% 0.3 mm 0 W/m2
03:18 7.4 °C 6.2 °C 1021.2 hPa WSW 13.4 km/h 23.3 km/h 92% 0.3 mm 0 W/m2
03:23 7.4 °C 6.3 °C 1021.2 hPa WSW 14.8 km/h 19.5 km/h 93% 0.3 mm 0 W/m2
03:28 7.4 °C 6.3 °C 1021.2 hPa SW 15.8 km/h 25.6 km/h 93% 0.3 mm 0 W/m2
03:33 7.4 °C 6.3 °C 1021.2 hPa WSW 11.1 km/h 25.6 km/h 93% 0.3 mm 0 W/m2
03:38 7.4 °C 6.3 °C 1021.2 hPa SW 8.7 km/h 24.5 km/h 93% 0.3 mm 0 W/m2
03:43 7.3 °C 6.4 °C 1021.2 hPa SW 12.2 km/h 24.5 km/h 94% 0.3 mm 0 W/m2
03:48 7.2 °C 6.2 °C 1021.6 hPa WSW 12.2 km/h 20.9 km/h 93% 0.3 mm 0 W/m2
03:53 7.2 °C 6.2 °C 1021.6 hPa SW 11.1 km/h 23.3 km/h 93% 0.3 mm 0 W/m2
03:58 7.3 °C 6.1 °C 1021.2 hPa WSW 9.7 km/h 23.3 km/h 92% 0.0 mm 0 W/m2
04:03 7.3 °C 6.1 °C 1021.2 hPa WSW 8.7 km/h 19.5 km/h 92% 0.3 mm 0 W/m2
04:08 7.4 °C 6.3 °C 1021.2 hPa WSW 13.4 km/h 19.5 km/h 93% 0.3 mm 0 W/m2
04:13 7.4 °C 6.3 °C 1021.2 hPa WSW 15.8 km/h 23.3 km/h 93% 0.3 mm 0 W/m2
04:18 7.5 °C 6.6 °C 1021.2 hPa WSW 14.8 km/h 27.0 km/h 94% 0.3 mm 0 W/m2
04:23 7.4 °C 6.5 °C 1021.2 hPa SW 13.4 km/h 27.0 km/h 94% 0.3 mm 0 W/m2
04:28 7.4 °C 6.5 °C 1021.2 hPa SW 9.7 km/h 27.0 km/h 94% 0.3 mm 0 W/m2
04:33 7.3 °C 6.4 °C 1021.2 hPa SW 14.8 km/h 25.6 km/h 94% 0.3 mm 0 W/m2
04:38 7.3 °C 6.4 °C 1021.2 hPa SW 14.8 km/h 25.6 km/h 94% 0.3 mm 0 W/m2
04:43 7.2 °C 6.3 °C 1021.2 hPa SW 11.1 km/h 24.5 km/h 94% 0.5 mm 0 W/m2
04:48 7.2 °C 6.3 °C 1021.2 hPa SW 12.2 km/h 24.5 km/h 94% 0.5 mm 0 W/m2
04:53 7.2 °C 6.4 °C 1021.2 hPa SW 17.2 km/h 25.6 km/h 95% 0.5 mm 0 W/m2
04:58 7.2 °C 6.4 °C 1021.2 hPa WSW 12.2 km/h 25.6 km/h 95% 0.5 mm 0 W/m2
05:03 7.3 °C 6.6 °C 1021.2 hPa WSW 14.8 km/h 28.0 km/h 95% 0.3 mm 0 W/m2
05:08 7.3 °C 6.4 °C 1021.2 hPa WSW 12.2 km/h 28.0 km/h 94% 0.3 mm 0 W/m2
05:13 7.4 °C 6.5 °C 1021.2 hPa SW 11.1 km/h 27.0 km/h 94% 0.5 mm 0 W/m2
05:18 7.4 °C 6.3 °C 1021.2 hPa SW 14.8 km/h 27.0 km/h 93% 0.5 mm 0 W/m2
05:23 7.3 °C 6.2 °C 1021.6 hPa WSW 20.9 km/h 27.0 km/h 93% 0.5 mm 0 W/m2
05:28 7.3 °C 6.2 °C 1021.2 hPa WSW 14.8 km/h 28.0 km/h 93% 0.5 mm 0 W/m2
05:33 7.3 °C 6.2 °C 1021.2 hPa West 9.7 km/h 28.0 km/h 93% 0.5 mm 0 W/m2
05:38 7.4 °C 6.3 °C 1021.2 hPa WSW 11.1 km/h 25.6 km/h 93% 0.5 mm 0 W/m2
05:43 7.4 °C 6.3 °C 1021.6 hPa WSW 11.1 km/h 20.9 km/h 93% 0.3 mm 0 W/m2
05:48 7.5 °C 6.4 °C 1021.6 hPa WSW 12.2 km/h 20.9 km/h 93% 0.3 mm 0 W/m2
05:53 7.5 °C 6.4 °C 1021.6 hPa SW 8.7 km/h 20.9 km/h 93% 0.3 mm 0 W/m2
05:58 7.5 °C 6.4 °C 1021.6 hPa SW 9.7 km/h 21.9 km/h 93% 0.3 mm 0 W/m2
06:03 7.6 °C 6.4 °C 1021.6 hPa WSW 17.2 km/h 25.6 km/h 92% 0.5 mm 0 W/m2
06:08 7.7 °C 6.3 °C 1021.6 hPa WSW 14.8 km/h 28.0 km/h 91% 0.5 mm 0 W/m2
06:13 7.6 °C 6.1 °C 1021.9 hPa WSW 11.1 km/h 28.0 km/h 90% 0.3 mm 0 W/m2
06:18 7.6 °C 5.9 °C 1021.9 hPa WSW 14.8 km/h 23.3 km/h 89% 0.3 mm 0 W/m2
06:23 7.7 °C 5.8 °C 1021.6 hPa WSW 7.2 km/h 24.5 km/h 88% 0.3 mm 0 W/m2
06:28 7.6 °C 5.7 °C 1021.9 hPa WSW 13.4 km/h 24.5 km/h 88% 0.3 mm 0 W/m2
06:33 7.6 °C 5.6 °C 1022.2 hPa WSW 13.4 km/h 21.9 km/h 87% 0.3 mm 0 W/m2
06:38 7.6 °C 5.6 °C 1021.9 hPa WSW 15.8 km/h 21.9 km/h 87% 0.3 mm 0 W/m2
06:43 7.6 °C 5.6 °C 1021.9 hPa West 7.2 km/h 19.5 km/h 87% 0.3 mm 0 W/m2
06:48 7.8 °C 5.9 °C 1022.2 hPa WSW 13.4 km/h 24.5 km/h 88% 0.3 mm 0 W/m2
06:53 7.9 °C 5.9 °C 1022.2 hPa SW 13.4 km/h 24.5 km/h 87% 0.3 mm 0 W/m2
06:58 8.0 °C 5.9 °C 1022.2 hPa SW 9.7 km/h 25.6 km/h 87% 0.3 mm 0 W/m2
07:03 7.9 °C 5.7 °C 1022.2 hPa WSW 12.2 km/h 25.6 km/h 86% 0.0 mm 0 W/m2
07:08 7.8 °C 5.6 °C 1022.2 hPa SW 13.4 km/h 28.0 km/h 86% 0.0 mm 0 W/m2
07:13 7.7 °C 5.7 °C 1022.6 hPa SW 13.4 km/h 28.0 km/h 87% 0.0 mm 0 W/m2
07:18 7.6 °C 5.6 °C 1022.6 hPa WSW 12.2 km/h 20.9 km/h 87% 0.0 mm 0 W/m2
07:23 7.6 °C 5.9 °C 1022.6 hPa WSW 13.4 km/h 20.9 km/h 89% 0.0 mm 0 W/m2
07:28 7.6 °C 5.9 °C 1022.6 hPa WSW 8.7 km/h 20.9 km/h 89% 0.0 mm 1 W/m2
07:33 7.5 °C 5.8 °C 1022.6 hPa WSW 9.7 km/h 18.3 km/h 89% 0.3 mm 2 W/m2
07:38 7.6 °C 6.1 °C 1022.6 hPa West 11.1 km/h 17.2 km/h 90% 0.3 mm 4 W/m2
07:43 7.7 °C 6.0 °C 1022.9 hPa WSW 9.7 km/h 20.9 km/h 89% 0.3 mm 6 W/m2
07:48 7.8 °C 5.8 °C 1022.6 hPa WSW 18.3 km/h 28.0 km/h 87% 0.3 mm 10 W/m2
07:53 8.0 °C 5.8 °C 1022.6 hPa WSW 9.7 km/h 28.0 km/h 86% 0.3 mm 22 W/m2
07:58 7.9 °C 5.7 °C 1022.9 hPa SW 13.4 km/h 28.0 km/h 86% 0.3 mm 32 W/m2
08:03 7.9 °C 5.7 °C 1022.9 hPa WSW 13.4 km/h 24.5 km/h 86% 0.3 mm 30 W/m2
08:08 8.0 °C 5.8 °C 1022.9 hPa West 14.8 km/h 24.5 km/h 86% 0.3 mm 29 W/m2
08:13 8.0 °C 5.8 °C 1022.9 hPa West 6.1 km/h 23.3 km/h 86% 0.3 mm 27 W/m2
08:18 7.9 °C 5.7 °C 1022.9 hPa West 9.7 km/h 19.5 km/h 86% 0.3 mm 32 W/m2
08:23 7.9 °C 5.7 °C 1022.9 hPa WNW 14.8 km/h 27.0 km/h 86% 0.3 mm 46 W/m2
08:28 7.9 °C 5.7 °C 1022.9 hPa WNW 12.2 km/h 27.0 km/h 86% 0.3 mm 43 W/m2
08:33 7.8 °C 5.4 °C 1022.9 hPa WSW 7.2 km/h 21.9 km/h 85% 0.0 mm 54 W/m2
08:38 7.8 °C 5.4 °C 1023.2 hPa West 7.2 km/h 17.2 km/h 85% 0.0 mm 59 W/m2
08:43 7.8 °C 5.4 °C 1022.9 hPa West 5.0 km/h 17.2 km/h 85% 0.0 mm 38 W/m2
08:48 7.8 °C 5.4 °C 1023.2 hPa West 11.1 km/h 18.3 km/h 85% 0.0 mm 41 W/m2
08:53 7.8 °C 5.4 °C 1023.2 hPa West 7.2 km/h 18.3 km/h 85% 0.0 mm 46 W/m2
08:58 7.7 °C 5.2 °C 1023.2 hPa WSW 9.7 km/h 15.8 km/h 84% 0.0 mm 60 W/m2
09:03 7.8 °C 5.3 °C 1023.2 hPa WSW 11.1 km/h 14.8 km/h 84% 0.0 mm 76 W/m2
09:08 7.9 °C 5.4 °C 1023.2 hPa West 11.1 km/h 20.9 km/h 84% 0.0 mm 85 W/m2
09:13 8.0 °C 5.4 °C 1023.2 hPa West 17.2 km/h 24.5 km/h 84% 0.0 mm 123 W/m2
09:18 8.6 °C 5.9 °C 1023.6 hPa WSW 8.7 km/h 24.5 km/h 83% 0.0 mm 283 W/m2
09:23 9.2 °C 5.9 °C 1023.6 hPa WSW 6.1 km/h 24.5 km/h 80% 0.0 mm 118 W/m2
09:28 9.0 °C 5.4 °C 1023.6 hPa WSW 17.2 km/h 27.0 km/h 78% 0.0 mm 103 W/m2
09:33 8.8 °C 5.6 °C 1023.6 hPa WSW 11.1 km/h 27.0 km/h 80% 0.0 mm 119 W/m2
09:38 8.7 °C 5.4 °C 1023.6 hPa West 11.1 km/h 21.9 km/h 80% 0.0 mm 125 W/m2
09:43 8.8 °C 5.6 °C 1023.6 hPa West 11.1 km/h 21.9 km/h 80% 0.0 mm 145 W/m2
09:48 9.1 °C 5.4 °C 1023.9 hPa WSW 12.2 km/h 25.6 km/h 78% 0.0 mm 170 W/m2
09:54 9.8 °C 6.2 °C 1023.9 hPa WSW 9.7 km/h 25.6 km/h 78% 0.0 mm 162 W/m2
09:59 10.2 °C 5.9 °C 1023.9 hPa WSW 12.2 km/h 23.3 km/h 75% 0.0 mm 169 W/m2
10:04 10.0 °C 5.6 °C 1023.9 hPa WSW 14.8 km/h 23.3 km/h 74% 0.0 mm 145 W/m2
10:09 9.8 °C 5.6 °C 1023.9 hPa WSW 13.4 km/h 21.9 km/h 75% 0.0 mm 155 W/m2
10:14 10.1 °C 5.5 °C 1024.3 hPa WSW 12.2 km/h 23.3 km/h 73% 0.0 mm 159 W/m2
10:19 10.1 °C 5.5 °C 1024.3 hPa WSW 18.3 km/h 27.0 km/h 73% 0.0 mm 180 W/m2
10:24 9.8 °C 5.4 °C 1024.3 hPa WSW 12.2 km/h 27.0 km/h 74% 0.0 mm 172 W/m2
10:29 10.0 °C 5.4 °C 1024.3 hPa SW 12.2 km/h 27.0 km/h 73% 0.0 mm 131 W/m2
10:34 9.5 °C 5.1 °C 1024.3 hPa SW 13.4 km/h 25.6 km/h 74% 0.0 mm 159 W/m2
10:39 9.5 °C 5.3 °C 1024.3 hPa SW 11.1 km/h 25.6 km/h 75% 0.0 mm 207 W/m2
10:44 9.5 °C 5.3 °C 1024.3 hPa WSW 14.8 km/h 31.7 km/h 75% 0.0 mm 226 W/m2
10:49 9.7 °C 5.5 °C 1024.3 hPa WSW 12.2 km/h 31.7 km/h 75% 0.0 mm 220 W/m2
10:54 10.0 °C 5.6 °C 1024.3 hPa WSW 18.3 km/h 24.5 km/h 74% 0.0 mm 168 W/m2
10:59 9.4 °C 5.2 °C 1024.3 hPa SW 14.8 km/h 27.0 km/h 75% 0.0 mm 159 W/m2
11:04 9.1 °C 5.3 °C 1024.3 hPa SW 14.8 km/h 27.0 km/h 77% 0.3 mm 119 W/m2
11:09 8.6 °C 5.2 °C 1024.3 hPa SW 11.1 km/h 24.5 km/h 79% 0.3 mm 122 W/m2
11:14 8.4 °C 5.5 °C 1024.3 hPa WSW 5.0 km/h 24.5 km/h 82% 0.5 mm 108 W/m2
11:19 8.4 °C 6.0 °C 1024.3 hPa WSW 9.7 km/h 17.2 km/h 85% 0.5 mm 100 W/m2
11:25 8.4 °C 6.2 °C 1023.9 hPa WSW 8.7 km/h 14.8 km/h 86% 0.5 mm 145 W/m2
11:30 8.6 °C 6.6 °C 1023.9 hPa West 5.0 km/h 12.2 km/h 87% 0.5 mm 138 W/m2
11:35 8.8 °C 6.6 °C 1023.9 hPa WSW 9.7 km/h 14.8 km/h 86% 0.5 mm 125 W/m2
11:40 9.0 °C 6.4 °C 1023.9 hPa WSW 13.4 km/h 20.9 km/h 84% 0.5 mm 138 W/m2
11:46 9.2 °C 6.3 °C 1023.6 hPa WSW 11.1 km/h 20.9 km/h 82% 0.5 mm 112 W/m2
11:51 9.1 °C 5.7 °C 1023.6 hPa West 13.4 km/h 23.3 km/h 79% 0.5 mm 97 W/m2
11:56 9.1 °C 5.7 °C 1023.6 hPa WSW 13.4 km/h 23.3 km/h 79% 0.5 mm 91 W/m2
12:02 9.2 °C 5.8 °C 1023.2 hPa WSW 14.8 km/h 19.5 km/h 79% 0.5 mm 135 W/m2
12:07 9.3 °C 5.7 °C 1023.2 hPa West 9.7 km/h 23.3 km/h 78% 0.3 mm 118 W/m2
12:12 9.4 °C 5.9 °C 1023.2 hPa WSW 12.2 km/h 23.3 km/h 79% 0.0 mm 153 W/m2
12:17 9.5 °C 5.8 °C 1023.2 hPa WSW 17.2 km/h 23.3 km/h 78% 0.0 mm 190 W/m2
12:23 9.6 °C 5.9 °C 1023.2 hPa WSW 11.1 km/h 23.3 km/h 78% 0.0 mm 123 W/m2
12:28 9.6 °C 6.2 °C 1023.2 hPa SW 11.1 km/h 23.3 km/h 79% 0.0 mm 101 W/m2
12:33 9.2 °C 6.1 °C 1023.2 hPa WSW 11.1 km/h 23.3 km/h 81% 0.0 mm 87 W/m2
12:38 9.1 °C 6.4 °C 1022.9 hPa SW 11.1 km/h 23.3 km/h 83% 0.0 mm 86 W/m2
12:43 9.1 °C 6.4 °C 1023.2 hPa WSW 12.2 km/h 23.3 km/h 83% 0.0 mm 95 W/m2
12:48 9.3 °C 6.6 °C 1023.2 hPa WSW 12.2 km/h 21.9 km/h 83% 0.0 mm 97 W/m2
12:53 9.5 °C 6.8 °C 1022.9 hPa SW 15.8 km/h 21.9 km/h 83% 0.0 mm 98 W/m2
12:58 9.5 °C 6.6 °C 1022.9 hPa WSW 13.4 km/h 20.9 km/h 82% 0.0 mm 127 W/m2
13:02 9.6 °C 6.3 °C 1022.9 hPa West 12.2 km/h 21.9 km/h 80% 0.0 mm 107 W/m2
13:08 9.7 °C 6.2 °C 1022.9 hPa West 18.3 km/h 25.6 km/h 79% 0.0 mm 162 W/m2
13:12 9.9 °C 6.4 °C 1022.9 hPa WSW 15.8 km/h 25.6 km/h 79% 0.0 mm 136 W/m2
13:18 10.0 °C 5.9 °C 1022.9 hPa WSW 12.2 km/h 25.6 km/h 76% 0.0 mm 185 W/m2
13:23 10.1 °C 6.1 °C 1022.9 hPa SW 12.2 km/h 23.3 km/h 76% 0.0 mm 140 W/m2
13:28 10.0 °C 5.8 °C 1022.6 hPa WSW 17.2 km/h 27.0 km/h 75% 0.0 mm 91 W/m2
13:33 10.0 °C 5.9 °C 1022.6 hPa WSW 11.1 km/h 27.0 km/h 76% 0.0 mm 126 W/m2
13:38 10.1 °C 6.3 °C 1022.9 hPa WSW 12.2 km/h 21.9 km/h 77% 0.0 mm 139 W/m2
13:43 10.2 °C 6.3 °C 1022.6 hPa WSW 14.8 km/h 23.3 km/h 77% 0.0 mm 155 W/m2
13:48 10.2 °C 6.2 °C 1022.6 hPa WSW 14.8 km/h 23.3 km/h 76% 0.0 mm 152 W/m2
13:52 10.3 °C 6.1 °C 1022.6 hPa WSW 19.5 km/h 28.0 km/h 75% 0.0 mm 136 W/m2
13:58 10.3 °C 6.1 °C 1022.6 hPa WSW 15.8 km/h 28.0 km/h 75% 0.0 mm 154 W/m2
14:02 10.4 °C 6.3 °C 1022.6 hPa WSW 11.1 km/h 28.0 km/h 76% 0.0 mm 124 W/m2
14:08 10.4 °C 6.3 °C 1022.6 hPa SW 13.4 km/h 25.6 km/h 76% 0.0 mm 89 W/m2
14:13 10.3 °C 6.3 °C 1022.9 hPa SW 15.8 km/h 23.3 km/h 76% 0.0 mm 76 W/m2
14:18 10.2 °C 6.3 °C 1022.6 hPa SW 9.7 km/h 23.3 km/h 77% 0.0 mm 75 W/m2
14:23 10.2 °C 6.3 °C 1022.6 hPa SW 7.2 km/h 21.9 km/h 77% 0.0 mm 82 W/m2
14:28 10.3 °C 6.4 °C 1022.9 hPa SW 11.1 km/h 19.5 km/h 77% 0.0 mm 77 W/m2
14:33 10.1 °C 6.4 °C 1022.9 hPa SW 11.1 km/h 19.5 km/h 78% 0.0 mm 94 W/m2
14:38 10.1 °C 6.4 °C 1022.6 hPa SW 18.3 km/h 23.3 km/h 78% 0.0 mm 106 W/m2
14:42 10.0 °C 6.6 °C 1022.9 hPa SW 13.4 km/h 23.3 km/h 79% 0.0 mm 75 W/m2
14:47 9.9 °C 6.6 °C 1022.9 hPa SW 14.8 km/h 23.3 km/h 80% 0.0 mm 101 W/m2
14:52 9.9 °C 7.0 °C 1022.9 hPa SW 9.7 km/h 19.5 km/h 82% 0.0 mm 88 W/m2
14:58 9.9 °C 7.3 °C 1022.9 hPa SW 13.4 km/h 19.5 km/h 84% 0.0 mm 74 W/m2
15:02 9.7 °C 7.1 °C 1023.2 hPa SW 17.2 km/h 24.5 km/h 84% 0.0 mm 62 W/m2
15:07 9.4 °C 7.0 °C 1022.9 hPa SW 7.2 km/h 24.5 km/h 85% 0.0 mm 72 W/m2
15:13 9.3 °C 7.1 °C 1022.9 hPa WSW 6.1 km/h 20.9 km/h 86% 0.0 mm 79 W/m2
15:19 9.5 °C 7.3 °C 1023.2 hPa West 8.7 km/h 15.8 km/h 86% 0.0 mm 75 W/m2
15:22 9.6 °C 7.2 °C 1022.9 hPa WSW 7.2 km/h 18.3 km/h 85% 0.0 mm 80 W/m2
15:28 9.7 °C 7.3 °C 1022.9 hPa WSW 8.7 km/h 18.3 km/h 85% 0.0 mm 62 W/m2
15:33 9.6 °C 7.2 °C 1023.2 hPa WSW 7.2 km/h 17.2 km/h 85% 0.0 mm 63 W/m2
15:35 9.6 °C 7.4 °C 1022.9 hPa SW 6.1 km/h 17.2 km/h 86% 0.0 mm 71 W/m2
15:38 9.6 °C 7.4 °C 1022.9 hPa WSW 8.7 km/h 17.2 km/h 86% 0.0 mm 68 W/m2
15:44 9.6 °C 7.4 °C 1023.2 hPa WSW 7.2 km/h 12.2 km/h 86% 0.0 mm 46 W/m2
15:48 9.4 °C 7.3 °C 1022.9 hPa WSW 6.1 km/h 12.2 km/h 87% 0.0 mm 30 W/m2
15:54 9.4 °C 7.3 °C 1023.2 hPa West 5.0 km/h 12.2 km/h 87% 0.0 mm 52 W/m2
15:59 9.5 °C 7.4 °C 1022.9 hPa West 8.7 km/h 13.4 km/h 87% 0.0 mm 62 W/m2
16:03 9.5 °C 7.4 °C 1023.2 hPa WSW 6.1 km/h 17.2 km/h 87% 0.0 mm 60 W/m2
16:09 9.6 °C 7.7 °C 1023.2 hPa West 5.0 km/h 17.2 km/h 88% 0.0 mm 49 W/m2
16:13 9.6 °C 7.7 °C 1022.9 hPa West 6.1 km/h 9.7 km/h 88% 0.0 mm 44 W/m2
16:19 9.7 °C 7.7 °C 1022.9 hPa WSW 6.1 km/h 12.2 km/h 87% 0.0 mm 35 W/m2
16:24 9.7 °C 7.7 °C 1022.9 hPa WSW 8.7 km/h 13.4 km/h 87% 0.0 mm 55 W/m2
16:28 9.8 °C 7.6 °C 1022.9 hPa West 2.6 km/h 13.4 km/h 86% 0.0 mm 40 W/m2
16:33 10.0 °C 7.6 °C 1023.2 hPa West 3.5 km/h 13.4 km/h 85% 0.0 mm 27 W/m2
16:38 10.0 °C 7.6 °C 1023.2 hPa WSW 7.2 km/h 12.2 km/h 85% 0.0 mm 20 W/m2
16:43 9.9 °C 7.7 °C 1023.2 hPa West 3.5 km/h 12.2 km/h 86% 0.0 mm 12 W/m2
16:48 9.7 °C 7.5 °C 1023.2 hPa West 3.5 km/h 12.2 km/h 86% 0.0 mm 7 W/m2
16:53 9.6 °C 7.4 °C 1023.2 hPa WSW 6.1 km/h 12.2 km/h 86% 0.3 mm 5 W/m2
16:58 9.5 °C 7.4 °C 1022.9 hPa WSW 5.0 km/h 13.4 km/h 87% 0.3 mm 5 W/m2
17:03 9.4 °C 7.3 °C 1023.2 hPa WSW 3.5 km/h 13.4 km/h 87% 0.3 mm 3 W/m2
17:08 9.3 °C 7.4 °C 1023.2 hPa West 2.6 km/h 9.7 km/h 88% 0.3 mm 0 W/m2
17:14 9.2 °C 7.3 °C 1023.2 hPa WNW 1.1 km/h 6.1 km/h 88% 0.3 mm 0 W/m2
17:19 9.1 °C 7.2 °C 1023.6 hPa Calm   5.0 km/h 88% 0.5 mm 0 W/m2
17:23 9.1 °C 7.4 °C 1023.2 hPa NW 2.6 km/h 5.0 km/h 89% 1.0 mm 0 W/m2
17:28 9.0 °C 7.3 °C 1023.2 hPa NNW 5.0 km/h 6.1 km/h 89% 1.5 mm 0 W/m2
17:34 8.9 °C 7.5 °C 1023.6 hPa North 3.5 km/h 7.2 km/h 91% 1.5 mm 0 W/m2
17:38 8.9 °C 7.7 °C 1023.6 hPa NE 6.1 km/h 11.1 km/h 92% 2.0 mm 0 W/m2
17:44 8.6 °C 7.6 °C 1023.6 hPa ENE 6.1 km/h 12.2 km/h 93% 2.0 mm 0 W/m2
17:49 8.5 °C 7.6 °C 1023.6 hPa NE 6.1 km/h 12.2 km/h 94% 2.0 mm 0 W/m2
17:53 8.5 °C 7.7 °C 1023.9 hPa NE 6.1 km/h 11.1 km/h 95% 1.8 mm 0 W/m2
17:58 8.5 °C 7.7 °C 1023.6 hPa NNW 5.0 km/h 11.1 km/h 95% 1.8 mm 0 W/m2
18:03 8.5 °C 7.7 °C 1023.9 hPa NW 6.1 km/h 9.7 km/h 95% 1.8 mm 0 W/m2
18:08 8.4 °C 7.7 °C 1023.6 hPa NNW 2.6 km/h 9.7 km/h 95% 2.0 mm 0 W/m2
18:14 8.5 °C 7.7 °C 1023.9 hPa North 1.1 km/h 7.2 km/h 95% 2.3 mm 0 W/m2
18:18 8.4 °C 7.7 °C 1023.6 hPa North 2.6 km/h 5.0 km/h 95% 2.0 mm 0 W/m2
18:23 8.4 °C 7.7 °C 1023.9 hPa North 3.5 km/h 7.2 km/h 95% 2.0 mm 0 W/m2
18:28 8.4 °C 7.7 °C 1023.9 hPa North 2.6 km/h 7.2 km/h 95% 1.5 mm 0 W/m2
18:33 8.3 °C 7.6 °C 1024.3 hPa NNE 1.1 km/h 7.2 km/h 95% 1.8 mm 0 W/m2
18:38 8.3 °C 7.6 °C 1024.3 hPa NNE 7.2 km/h 11.1 km/h 95% 1.8 mm 0 W/m2
18:43 8.3 °C 7.6 °C 1024.3 hPa North 2.6 km/h 11.1 km/h 95% 1.8 mm 0 W/m2
18:48 8.2 °C 7.6 °C 1023.9 hPa NNW 5.0 km/h 11.1 km/h 96% 2.0 mm 0 W/m2
18:53 8.2 °C 7.6 °C 1024.3 hPa Calm   11.1 km/h 96% 2.0 mm 0 W/m2
18:58 8.2 °C 7.6 °C 1024.3 hPa NNW 1.1 km/h 8.7 km/h 96% 2.0 mm 0 W/m2
19:05 8.2 °C 7.6 °C 1024.3 hPa NNE 5.0 km/h 6.1 km/h 96% 2.0 mm 0 W/m2
19:10 8.1 °C 7.5 °C 1024.3 hPa North 3.5 km/h 6.1 km/h 96% 1.8 mm 0 W/m2
19:15 8.0 °C 7.4 °C 1024.3 hPa North 3.5 km/h 6.1 km/h 96% 1.5 mm 0 W/m2
19:20 8.0 °C 7.4 °C 1024.3 hPa NNW 2.6 km/h 6.1 km/h 96% 1.5 mm 0 W/m2
19:25 8.0 °C 7.4 °C 1024.3 hPa NW 3.5 km/h 6.1 km/h 96% 1.3 mm 0 W/m2
19:30 8.0 °C 7.4 °C 1024.3 hPa NW 5.0 km/h 7.2 km/h 96% 1.3 mm 0 W/m2
19:35 7.9 °C 7.4 °C 1024.3 hPa NW 3.5 km/h 7.2 km/h 97% 1.0 mm 0 W/m2
19:40 7.9 °C 7.4 °C 1024.3 hPa NW 2.6 km/h 6.1 km/h 97% 0.3 mm 0 W/m2
19:45 7.9 °C 7.4 °C 1024.3 hPa NNW 3.5 km/h 5.0 km/h 97% 0.3 mm 0 W/m2
19:50 7.9 °C 7.4 °C 1024.3 hPa NNE 1.1 km/h 6.1 km/h 97% 0.0 mm 0 W/m2
19:55 7.9 °C 7.4 °C 1024.3 hPa North 2.6 km/h 6.1 km/h 97% 0.0 mm 0 W/m2
20:00 8.0 °C 7.6 °C 1024.3 hPa NNW 6.1 km/h 9.7 km/h 97% 0.0 mm 0 W/m2
20:05 8.0 °C 7.6 °C 1024.3 hPa NNW 1.1 km/h 9.7 km/h 97% 0.3 mm 0 W/m2
20:11 8.0 °C 7.6 °C 1024.3 hPa North 5.0 km/h 7.2 km/h 97% 0.3 mm 0 W/m2
20:15 8.0 °C 7.6 °C 1024.3 hPa NW 3.5 km/h 7.2 km/h 97% 0.3 mm 0 W/m2
20:20 8.0 °C 7.6 °C 1024.3 hPa NW 3.5 km/h 7.2 km/h 97% 0.3 mm 0 W/m2
20:25 7.9 °C 7.4 °C 1024.3 hPa NNW 2.6 km/h 6.1 km/h 97% 0.3 mm 0 W/m2
20:30 7.8 °C 7.3 °C 1024.6 hPa North 1.1 km/h 5.0 km/h 97% 0.3 mm 0 W/m2
20:35 7.8 °C 7.3 °C 1024.3 hPa North 3.5 km/h 5.0 km/h 97% 0.3 mm 0 W/m2
20:40 7.8 °C 7.3 °C 1024.3 hPa North 2.6 km/h 7.2 km/h 97% 0.3 mm 0 W/m2
20:45 7.8 °C 7.3 °C 1024.6 hPa North 2.6 km/h 7.2 km/h 97% 0.3 mm 0 W/m2
20:50 7.8 °C 7.3 °C 1024.6 hPa NNE 2.6 km/h 6.1 km/h 97% 0.3 mm 0 W/m2
20:55 7.8 °C 7.3 °C 1024.6 hPa North 2.6 km/h 5.0 km/h 97% 0.3 mm 0 W/m2
21:00 7.8 °C 7.3 °C 1024.9 hPa Calm   5.0 km/h 97% 0.3 mm 0 W/m2
21:05 7.8 °C 7.3 °C 1024.9 hPa NNW 3.5 km/h 5.0 km/h 97% 0.0 mm 0 W/m2
21:10 7.8 °C 7.3 °C 1024.9 hPa NNW 2.6 km/h 5.0 km/h 97% 0.0 mm 0 W/m2
21:15 7.8 °C 7.3 °C 1024.9 hPa North 2.6 km/h 5.0 km/h 97% 0.0 mm 0 W/m2
21:20 7.8 °C 7.3 °C 1024.9 hPa North 2.6 km/h 7.2 km/h 97% 0.0 mm 0 W/m2
21:25 7.8 °C 7.3 °C 1024.9 hPa North 2.6 km/h 7.2 km/h 97% 0.0 mm 0 W/m2
21:30 7.7 °C 7.3 °C 1024.6 hPa North 2.6 km/h 7.2 km/h 97% 0.0 mm 0 W/m2
21:35 7.7 °C 7.3 °C 1024.6 hPa NNW 2.6 km/h 7.2 km/h 97% 0.0 mm 0 W/m2
21:40 7.7 °C 7.3 °C 1024.6 hPa NNW 3.5 km/h 6.1 km/h 97% 0.0 mm 0 W/m2
21:45 7.6 °C 7.2 °C 1024.6 hPa NNW 6.1 km/h 8.7 km/h 97% 0.0 mm 0 W/m2
21:50 7.5 °C 7.1 °C 1024.6 hPa NNW 3.5 km/h 8.7 km/h 97% 0.0 mm 0 W/m2
21:56 7.5 °C 7.1 °C 1024.6 hPa North 2.6 km/h 8.7 km/h 97% 0.0 mm 0 W/m2
22:01 7.4 °C 6.9 °C 1024.6 hPa North 3.5 km/h 7.2 km/h 97% 0.0 mm 0 W/m2
22:06 7.4 °C 6.9 °C 1024.6 hPa NNW 5.0 km/h 7.2 km/h 97% 0.0 mm 0 W/m2
22:11 7.3 °C 6.8 °C 1024.6 hPa North 5.0 km/h 7.2 km/h 97% 0.0 mm 0 W/m2
22:16 7.2 °C 6.8 °C 1024.6 hPa North 1.1 km/h 7.2 km/h 97% 0.0 mm 0 W/m2
22:21 7.1 °C 6.7 °C 1024.6 hPa Calm   6.1 km/h 97% 0.0 mm 0 W/m2
22:26 7.0 °C 6.6 °C 1024.6 hPa North 1.1 km/h 3.5 km/h 97% 0.0 mm 0 W/m2
22:31 6.9 °C 6.6 °C 1024.6 hPa North 1.1 km/h 3.5 km/h 98% 0.0 mm 0 W/m2
22:36 6.9 °C 6.6 °C 1024.6 hPa North 2.6 km/h 5.0 km/h 98% 0.0 mm 0 W/m2
22:41 6.7 °C 6.4 °C 1024.9 hPa North 1.1 km/h 5.0 km/h 98% 0.0 mm 0 W/m2
22:46 6.6 °C 6.3 °C 1024.6 hPa Calm   3.5 km/h 98% 0.0 mm 0 W/m2
22:51 6.5 °C 6.2 °C 1024.9 hPa North 2.6 km/h 3.5 km/h 98% 0.0 mm 0 W/m2
22:56 6.5 °C 6.2 °C 1024.6 hPa North 2.6 km/h 3.5 km/h 98% 0.0 mm 0 W/m2
23:01 6.4 °C 6.1 °C 1024.9 hPa North 2.6 km/h 3.5 km/h 98% 0.0 mm 0 W/m2
23:06 6.2 °C 5.9 °C 1024.6 hPa North 2.6 km/h 3.5 km/h 98% 0.0 mm 0 W/m2
23:24 6.2 °C 5.9 °C 1024.9 hPa NNW 2.6 km/h 3.5 km/h 98% 0.0 mm 0 W/m2
23:29 6.1 °C 5.8 °C 1024.9 hPa North 1.1 km/h 3.5 km/h 98% 0.0 mm 0 W/m2
23:34 6.1 °C 5.8 °C 1024.9 hPa North 1.1 km/h 3.5 km/h 98% 0.0 mm 0 W/m2
23:39 6.1 °C 5.8 °C 1024.9 hPa North 2.6 km/h 3.5 km/h 98% 0.0 mm 0 W/m2
23:44 6.1 °C 5.8 °C 1024.9 hPa North 1.1 km/h 3.5 km/h 98% 0.0 mm 0 W/m2
23:49 6.0 °C 5.7 °C 1024.9 hPa NNW 1.1 km/h 3.5 km/h 98% 0.0 mm 0 W/m2
23:54 6.0 °C 5.7 °C 1024.9 hPa Calm   2.6 km/h 98% 0.0 mm 0 W/m2
23:59 6.0 °C 5.7 °C 1024.9 hPa NW 1.1 km/h 2.6 km/h 98% 0.0 mm 0 W/m2
Northern Hawkes Bay. New Zealand Historic Data
Compliments of Weather Underground - 2.25 mb